createdAt,value
2019-05-13T00:00:34.036Z,77.89
2019-05-13T00:03:37.749Z,78.42
2019-05-13T00:06:51.335Z,78.45
2019-05-13T00:09:47.113Z,78.61
2019-05-13T00:12:53.790Z,78.62
2019-05-13T00:15:56.605Z,78.98
2019-05-13T00:19:00.518Z,78.77
2019-05-13T00:22:04.490Z,79.00
2019-05-13T00:25:08.567Z,78.85
2019-05-13T00:28:14.529Z,79.32
2019-05-13T00:31:17.932Z,79.66
2019-05-13T00:34:21.766Z,79.19
2019-05-13T00:37:25.601Z,79.51
2019-05-13T00:40:29.501Z,79.75
2019-05-13T00:43:33.938Z,79.83
2019-05-13T00:46:38.090Z,79.59
2019-05-13T00:49:43.736Z,79.89
2019-05-13T00:52:48.633Z,79.76
2019-05-13T00:55:53.570Z,80.03
2019-05-13T00:58:57.768Z,79.92
2019-05-13T01:02:03.559Z,79.92
2019-05-13T01:05:07.524Z,79.98
2019-05-13T01:08:11.362Z,79.78
2019-05-13T01:11:15.292Z,79.90
2019-05-13T01:14:19.184Z,79.95
2019-05-13T01:17:23.659Z,79.94
2019-05-13T01:20:27.612Z,79.90
2019-05-13T01:23:31.516Z,80.12
2019-05-13T01:26:35.416Z,80.81
2019-05-13T01:29:39.287Z,80.30
2019-05-13T01:32:44.867Z,80.76
2019-05-13T01:35:48.977Z,81.24
2019-05-13T01:38:54.061Z,81.35
2019-05-13T01:41:58.127Z,81.16
2019-05-13T01:45:04.487Z,81.26
2019-05-13T01:48:08.212Z,81.60
2019-05-13T01:51:13.685Z,82.23
2019-05-13T01:54:17.809Z,82.45
2019-05-13T01:57:23.814Z,82.87
2019-05-13T02:00:27.418Z,83.30
2019-05-13T02:03:33.654Z,83.42
2019-05-13T02:06:36.964Z,83.80
2019-05-13T02:09:40.851Z,84.33
2019-05-13T02:12:44.990Z,84.71
2019-05-13T02:15:48.827Z,84.47
2019-05-13T02:18:53.661Z,84.47
2019-05-13T02:21:57.773Z,84.69
2019-05-13T02:25:04.146Z,85.38
2019-05-13T02:28:09.894Z,84.97
2019-05-13T02:31:18.840Z,84.65
2019-05-13T02:34:18.487Z,85.50
2019-05-13T02:37:23.325Z,85.64
2019-05-13T02:40:27.437Z,86.00
2019-05-13T02:43:33.331Z,86.21
2019-05-13T02:46:37.086Z,86.29
2019-05-13T02:49:42.991Z,85.87
2019-05-13T02:52:46.625Z,86.53
2019-05-13T02:55:52.456Z,86.53
2019-05-13T02:58:56.135Z,86.48
2019-05-13T03:02:03.263Z,87.27
2019-05-13T03:05:05.831Z,87.10
2019-05-13T03:08:12.824Z,87.06
2019-05-13T03:11:15.443Z,87.53
2019-05-13T03:14:19.239Z,87.97
2019-05-13T03:17:28.501Z,87.72
2019-05-13T03:20:33.474Z,87.47
2019-05-13T03:23:37.432Z,88.03
2019-05-13T03:26:42.774Z,88.03
2019-05-13T03:29:46.797Z,87.62
2019-05-13T03:32:59.013Z,88.07
2019-05-13T03:35:56.804Z,88.27
2019-05-13T03:39:07.106Z,87.99
2019-05-13T03:42:06.742Z,87.94
2019-05-13T03:45:12.969Z,87.75
2019-05-13T03:48:19.362Z,87.43
2019-05-13T03:51:23.764Z,87.82
2019-05-13T03:54:27.813Z,88.20
2019-05-13T03:57:33.751Z,88.21
2019-05-13T04:00:37.305Z,88.23
2019-05-13T04:03:43.996Z,88.32
2019-05-13T04:06:46.894Z,88.72
2019-05-13T04:09:52.453Z,88.70
2019-05-13T04:12:56.679Z,88.38
2019-05-13T04:16:03.969Z,88.02
2019-05-13T04:19:06.691Z,88.78
2019-05-13T04:22:12.941Z,88.75
2019-05-13T04:25:16.436Z,88.47
2019-05-13T04:28:22.208Z,88.19
2019-05-13T04:31:26.199Z,88.17
2019-05-13T04:34:33.442Z,88.99
2019-05-13T04:37:35.781Z,88.63
2019-05-13T04:40:42.461Z,88.40
2019-05-13T04:43:45.328Z,87.90
2019-05-13T04:46:52.093Z,88.23
2019-05-13T04:49:55.111Z,88.11
2019-05-13T04:52:59.107Z,88.57
2019-05-13T04:56:03.581Z,88.33
2019-05-13T04:59:07.765Z,87.28
2019-05-13T05:02:40.076Z,87.40
2019-05-13T05:06:16.451Z,86.91
2019-05-13T05:10:16.912Z,86.85
2019-05-13T05:13:42.823Z,86.94
2019-05-13T05:17:17.342Z,87.25
2019-05-13T05:20:35.072Z,86.96
2019-05-13T05:24:04.280Z,86.03
2019-05-13T05:27:36.938Z,85.96
2019-05-13T05:31:15.691Z,85.49
2019-05-13T05:35:12.702Z,85.86
2019-05-13T05:38:31.678Z,85.64
2019-05-13T05:41:35.643Z,84.65
2019-05-13T05:44:42.239Z,84.07
2019-05-13T05:47:46.738Z,84.33
2019-05-13T05:50:52.506Z,83.90
2019-05-13T05:53:58.760Z,82.63
2019-05-13T05:57:04.812Z,81.82
2019-05-13T06:00:11.503Z,81.59
2019-05-13T06:03:15.052Z,80.56
2019-05-13T06:06:22.762Z,80.80
2019-05-13T06:09:26.919Z,80.69
2019-05-13T06:12:31.529Z,80.33
2019-05-13T06:15:35.564Z,78.61
2019-05-13T06:18:41.512Z,77.85
2019-05-13T06:21:45.839Z,76.52
2019-05-13T06:24:52.011Z,77.23
2019-05-13T06:27:55.421Z,77.17
2019-05-13T06:31:02.431Z,75.03
2019-05-13T06:34:05.553Z,73.72
2019-05-13T06:37:11.425Z,74.03
2019-05-13T06:40:15.431Z,73.57
2019-05-13T06:43:21.147Z,72.63
2019-05-13T06:46:25.181Z,72.28
2019-05-13T06:49:29.082Z,70.61
2019-05-13T06:52:32.994Z,72.41
2019-05-13T06:55:36.889Z,71.41
2019-05-13T06:58:41.492Z,69.46
2019-05-13T07:01:45.691Z,69.58
2019-05-13T07:04:51.648Z,69.70
2019-05-13T07:07:55.760Z,69.31
2019-05-13T07:11:16.659Z,69.55
2019-05-13T07:14:05.463Z,70.67
2019-05-13T07:17:09.330Z,67.53
2019-05-13T07:20:13.982Z,66.95
2019-05-13T07:23:18.056Z,67.54
2019-05-13T07:26:22.172Z,66.66
2019-05-13T07:29:26.037Z,66.62
2019-05-13T07:32:31.463Z,65.38
2019-05-13T07:35:38.018Z,65.35
2019-05-13T07:38:42.110Z,64.91
2019-05-13T07:41:45.985Z,65.47
2019-05-13T07:44:52.148Z,65.05
2019-05-13T07:47:55.420Z,64.64
2019-05-13T07:51:00.635Z,63.89
2019-05-13T07:54:05.096Z,63.47
2019-05-13T07:57:08.919Z,64.24
2019-05-13T08:00:12.984Z,62.95
2019-05-13T08:03:16.809Z,62.85
2019-05-13T08:06:21.951Z,61.42
2019-05-13T08:09:26.171Z,61.85
2019-05-13T08:12:31.940Z,61.04
2019-05-13T08:15:35.617Z,61.23
2019-05-13T08:18:43.680Z,59.94
2019-05-13T08:21:45.215Z,59.63
2019-05-13T08:24:51.938Z,57.20
2019-05-13T08:27:54.600Z,55.84
2019-05-13T08:30:58.471Z,55.57
2019-05-13T08:34:02.741Z,52.84
2019-05-13T08:37:06.686Z,54.37
2019-05-13T08:40:12.075Z,52.23
2019-05-13T08:43:16.301Z,51.53
2019-05-13T08:46:21.865Z,53.99
2019-05-13T08:49:25.884Z,52.05
2019-05-13T08:52:31.327Z,51.12
2019-05-13T08:55:35.423Z,51.32
2019-05-13T08:58:41.286Z,52.98
2019-05-13T09:01:45.095Z,53.06
2019-05-13T09:04:51.439Z,52.74
2019-05-13T09:07:55.930Z,51.58
2019-05-13T09:11:01.591Z,50.15
2019-05-13T09:14:05.904Z,50.40
2019-05-13T09:17:11.891Z,50.62
2019-05-13T09:20:15.623Z,47.42
2019-05-13T09:23:22.014Z,48.59
2019-05-13T09:26:25.187Z,50.27
2019-05-13T09:29:31.896Z,46.42
2019-05-13T09:32:34.814Z,48.98
2019-05-13T09:35:38.668Z,49.64
2019-05-13T09:38:42.567Z,45.97
2019-05-13T09:41:46.368Z,47.95
2019-05-13T09:44:52.593Z,50.00
2019-05-13T09:47:56.120Z,44.57
2019-05-13T09:51:02.169Z,43.38
2019-05-13T09:54:05.892Z,44.84
2019-05-13T09:57:11.916Z,44.00
2019-05-13T10:00:15.519Z,43.47
2019-05-13T10:03:25.068Z,41.17
2019-05-13T10:06:25.224Z,46.28
2019-05-13T10:09:29.055Z,45.94
2019-05-13T10:12:32.891Z,43.27
2019-05-13T10:15:37.011Z,43.96
2019-05-13T10:18:42.224Z,46.27
2019-05-13T10:21:46.604Z,44.55
2019-05-13T10:24:51.375Z,45.22
2019-05-13T10:27:55.767Z,46.07
2019-05-13T10:30:59.658Z,44.04
2019-05-13T10:34:03.634Z,45.30
2019-05-13T10:37:07.649Z,45.44
2019-05-13T10:40:13.195Z,45.55
2019-05-13T10:43:29.394Z,47.28
2019-05-13T10:46:22.902Z,46.33
2019-05-13T10:49:26.706Z,45.44
2019-05-13T10:52:32.256Z,44.80
2019-05-13T10:55:36.270Z,46.74
2019-05-13T10:58:42.616Z,46.43
2019-05-13T11:01:45.941Z,45.16
2019-05-13T11:04:51.928Z,45.59
2019-05-13T11:07:55.526Z,45.79
2019-05-13T11:11:01.983Z,44.98
2019-05-13T11:14:10.910Z,45.56
2019-05-13T11:17:13.152Z,45.73
2019-05-13T11:20:16.457Z,46.63
2019-05-13T11:23:23.204Z,44.26
2019-05-13T11:26:26.346Z,44.81
2019-05-13T11:29:32.361Z,43.91
2019-05-13T11:32:35.856Z,46.53
2019-05-13T11:35:41.465Z,46.60
2019-05-13T11:38:45.610Z,43.76
2019-05-13T11:41:49.538Z,46.60
2019-05-13T11:44:53.399Z,46.92
2019-05-13T11:47:57.329Z,46.01
2019-05-13T11:51:04.007Z,45.73
2019-05-13T11:54:06.877Z,47.60
2019-05-13T11:57:12.447Z,46.67
2019-05-13T12:00:21.799Z,46.39
2019-05-13T12:03:25.858Z,47.26
2019-05-13T12:06:30.077Z,48.02
2019-05-13T12:09:35.767Z,46.91
2019-05-13T12:12:43.363Z,47.74
2019-05-13T12:15:49.609Z,49.56
2019-05-13T12:18:52.602Z,47.71
2019-05-13T12:21:56.511Z,49.36
2019-05-13T12:25:02.058Z,47.70
2019-05-13T12:28:06.121Z,49.19
2019-05-13T12:31:12.163Z,48.31
2019-05-13T12:34:15.720Z,49.43
2019-05-13T12:37:21.984Z,48.45
2019-05-13T12:40:25.334Z,48.30
2019-05-13T12:43:31.852Z,48.93
2019-05-13T12:46:34.885Z,47.63
2019-05-13T12:49:38.808Z,47.75
2019-05-13T12:52:43.763Z,47.66
2019-05-13T12:55:52.771Z,48.73
2019-05-13T12:58:53.801Z,47.00
2019-05-13T13:01:57.741Z,48.84
2019-05-13T13:05:14.078Z,47.98
2019-05-13T13:08:28.869Z,49.88
2019-05-13T13:11:12.942Z,49.27
2019-05-13T13:14:17.122Z,49.98
2019-05-13T13:17:24.090Z,49.46
2019-05-13T13:20:27.865Z,50.22
2019-05-13T13:23:34.182Z,50.66
2019-05-13T13:26:37.478Z,49.54
2019-05-13T13:29:43.303Z,50.41
2019-05-13T13:32:47.167Z,50.75
2019-05-13T13:35:58.924Z,49.05
2019-05-13T13:38:56.732Z,51.07
2019-05-13T13:42:05.440Z,50.90
2019-05-13T13:45:06.541Z,48.95
2019-05-13T13:48:13.379Z,50.78
2019-05-13T13:51:15.997Z,48.72
2019-05-13T13:54:22.363Z,49.18
2019-05-13T13:57:26.057Z,50.86
2019-05-13T14:00:40.746Z,47.34
2019-05-13T14:03:35.662Z,48.26
2019-05-13T14:09:45.376Z,48.19
2019-05-13T14:12:49.206Z,48.41
2019-05-13T14:15:53.121Z,49.03
2019-05-13T14:18:56.943Z,47.23
2019-05-13T14:22:01.690Z,50.51
2019-05-13T14:25:06.443Z,50.52
2019-05-13T14:28:10.334Z,51.47
2019-05-13T14:31:14.243Z,53.37
2019-05-13T14:34:18.093Z,53.06
2019-05-13T14:37:22.480Z,54.32
2019-05-13T14:40:26.451Z,54.84
2019-05-13T14:43:31.798Z,54.83
2019-05-13T14:46:47.212Z,55.09
2019-05-13T14:49:42.327Z,55.56
2019-05-13T14:52:46.566Z,54.88
2019-05-13T14:55:51.755Z,55.10
2019-05-13T14:58:55.757Z,55.70
2019-05-13T15:02:01.335Z,56.64
2019-05-13T15:05:06.512Z,56.02
2019-05-13T15:08:10.403Z,55.33
2019-05-13T15:11:14.483Z,55.19
2019-05-13T15:14:18.372Z,53.46
2019-05-13T15:17:22.281Z,54.46
2019-05-13T15:20:26.427Z,53.96
2019-05-13T15:23:31.721Z,53.74
2019-05-13T15:26:35.838Z,54.43
2019-05-13T15:29:41.650Z,55.94
2019-05-13T15:32:45.279Z,54.81
2019-05-13T15:35:51.780Z,53.08
2019-05-13T15:38:54.921Z,53.23
2019-05-13T15:42:01.707Z,51.36
2019-05-13T15:45:04.877Z,50.93
2019-05-13T15:48:08.701Z,50.76
2019-05-13T15:51:12.697Z,50.77
2019-05-13T15:54:16.612Z,50.35
2019-05-13T15:57:21.328Z,49.26
2019-05-13T16:00:25.574Z,50.52
2019-05-13T16:03:29.478Z,52.50
2019-05-13T16:06:33.333Z,53.11
2019-05-13T16:09:37.181Z,54.16
2019-05-13T16:12:43.632Z,54.06
2019-05-13T16:15:47.869Z,54.14
2019-05-13T16:18:52.816Z,54.67
2019-05-13T16:21:56.630Z,55.48
2019-05-13T16:25:01.509Z,55.48
2019-05-13T16:28:06.085Z,55.52
2019-05-13T16:31:12.040Z,55.22
2019-05-13T16:34:15.655Z,56.54
2019-05-13T16:37:21.799Z,55.89
2019-05-13T16:40:25.294Z,55.40
2019-05-13T16:43:29.154Z,56.13
2019-05-13T16:46:33.068Z,55.69
2019-05-13T16:49:36.982Z,55.77
2019-05-13T16:52:41.780Z,55.54
2019-05-13T16:55:46.153Z,55.59
2019-05-13T16:58:52.132Z,55.88
2019-05-13T17:01:55.912Z,57.29
2019-05-13T17:05:01.377Z,57.67
2019-05-13T17:08:05.427Z,57.99
2019-05-13T17:11:11.710Z,58.04
2019-05-13T17:14:15.313Z,58.33
2019-05-13T17:17:19.222Z,58.45
2019-05-13T17:20:23.188Z,60.06
2019-05-13T17:23:27.227Z,59.44
2019-05-13T17:26:32.685Z,57.86
2019-05-13T17:29:36.819Z,58.67
2019-05-13T17:32:40.744Z,57.61
2019-05-13T17:35:44.719Z,58.66
2019-05-13T17:38:48.561Z,59.96
2019-05-13T17:41:52.367Z,59.88
2019-05-13T17:44:56.189Z,59.97
2019-05-13T17:48:01.128Z,60.36
2019-05-13T17:51:05.018Z,60.17
2019-05-13T17:54:08.859Z,61.08
2019-05-13T17:57:12.670Z,61.33
2019-05-13T18:00:16.648Z,60.31
2019-05-13T18:03:20.540Z,60.05
2019-05-13T18:06:24.456Z,60.97
2019-05-13T18:09:28.351Z,61.95
2019-05-13T18:12:32.252Z,61.18
2019-05-13T18:15:36.077Z,61.16
2019-05-13T18:18:46.327Z,61.23
2019-05-13T18:21:45.585Z,61.03
2019-05-13T18:24:51.750Z,62.45
2019-05-13T18:27:55.145Z,63.08
2019-05-13T18:30:58.956Z,62.75
2019-05-13T18:34:02.856Z,62.60
2019-05-13T18:37:06.669Z,61.49
2019-05-13T18:40:11.632Z,62.19
2019-05-13T18:43:15.703Z,62.78
2019-05-13T18:46:21.732Z,62.97
2019-05-13T18:49:25.233Z,63.23
2019-05-13T18:52:31.177Z,62.64
2019-05-13T18:55:34.747Z,63.25
2019-05-13T18:58:38.634Z,62.31
2019-05-13T19:01:42.538Z,61.70
2019-05-13T19:04:46.415Z,60.82
2019-05-13T19:07:51.282Z,61.03
2019-05-13T19:10:55.365Z,61.45
2019-05-13T19:13:59.284Z,61.38
2019-05-13T19:17:03.241Z,61.49
2019-05-13T19:20:07.519Z,61.28
2019-05-13T19:23:11.917Z,61.02
2019-05-13T19:26:15.853Z,61.84
2019-05-13T19:29:21.841Z,61.43
2019-05-13T19:32:25.295Z,61.20
2019-05-13T19:35:29.203Z,61.38
2019-05-13T19:38:33.117Z,61.78
2019-05-13T19:41:36.993Z,62.42
2019-05-13T19:44:42.034Z,63.01
2019-05-13T19:47:46.095Z,63.31
2019-05-13T19:50:52.048Z,63.53
2019-05-13T19:53:55.528Z,63.87
2019-05-13T19:57:01.423Z,64.18
2019-05-13T20:00:09.764Z,65.27
2019-05-13T20:03:11.855Z,65.67
2019-05-13T20:06:15.854Z,65.99
2019-05-13T20:09:21.560Z,66.68
2019-05-13T20:12:25.504Z,67.07
2019-05-13T20:15:41.331Z,67.35
2019-05-13T20:18:47.035Z,67.65
2019-05-13T20:21:51.840Z,67.74
2019-05-13T20:24:55.846Z,67.90
2019-05-13T20:28:03.874Z,67.42
2019-05-13T20:31:08.350Z,67.70
2019-05-13T20:34:12.304Z,68.09
2019-05-13T20:37:16.324Z,68.37
2019-05-13T20:40:22.139Z,68.81
2019-05-13T20:43:27.570Z,68.94
2019-05-13T20:46:33.084Z,69.07
2019-05-13T20:49:37.724Z,69.42
2019-05-13T20:52:42.111Z,69.78
2019-05-13T20:55:47.106Z,69.94
2019-05-13T20:58:51.674Z,70.53
2019-05-13T21:01:55.996Z,70.49
2019-05-13T21:05:02.804Z,70.64
2019-05-13T21:08:06.540Z,70.46
2019-05-13T21:11:11.572Z,71.13
2019-05-13T21:14:15.571Z,71.34
2019-05-13T21:17:21.407Z,71.50
2019-05-13T21:20:26.240Z,71.62
2019-05-13T21:23:31.386Z,72.01
2019-05-13T21:26:36.325Z,72.44
2019-05-13T21:29:41.354Z,73.22
2019-05-13T21:32:46.190Z,73.06
2019-05-13T21:35:51.269Z,73.10
2019-05-13T21:38:55.937Z,73.60
2019-05-13T21:42:02.147Z,73.64
2019-05-13T21:45:06.765Z,73.98
2019-05-13T21:48:11.216Z,74.72
2019-05-13T21:51:15.856Z,74.72
2019-05-13T21:54:20.396Z,75.18
2019-05-13T21:57:24.211Z,75.69
2019-05-13T22:00:33.456Z,75.87
2019-05-13T22:03:37.794Z,76.27
2019-05-13T22:06:42.206Z,76.54
2019-05-13T22:09:46.719Z,76.89
2019-05-13T22:12:52.051Z,77.05
2019-05-13T22:15:56.716Z,77.39
2019-05-13T22:19:01.526Z,77.50
2019-05-13T22:22:05.584Z,77.89
2019-05-13T22:25:12.155Z,78.31
2019-05-13T22:28:16.252Z,78.61
2019-05-13T22:31:22.055Z,79.08
2019-05-13T22:34:25.614Z,79.43
2019-05-13T22:37:31.326Z,79.53
2019-05-13T22:40:35.299Z,79.63
2019-05-13T22:43:52.321Z,79.84
2019-05-13T22:46:44.724Z,80.18
2019-05-13T22:49:48.543Z,80.34
2019-05-13T22:52:52.440Z,80.48
2019-05-13T22:55:56.322Z,80.64
2019-05-13T22:59:02.114Z,80.78
2019-05-13T23:02:05.846Z,81.18
2019-05-13T23:05:11.283Z,81.38
2019-05-13T23:08:15.314Z,81.62
2019-05-13T23:11:19.127Z,82.00
2019-05-13T23:14:23.006Z,82.38
2019-05-13T23:17:26.856Z,82.69
2019-05-13T23:20:31.772Z,82.85
2019-05-13T23:23:35.948Z,82.98
2019-05-13T23:26:42.031Z,83.12
2019-05-13T23:29:47.173Z,83.41
2019-05-13T23:32:51.808Z,83.55
2019-05-13T23:35:55.916Z,83.60
2019-05-13T23:39:01.075Z,83.46
2019-05-13T23:42:05.036Z,83.19
2019-05-13T23:45:11.283Z,83.24
2019-05-13T23:48:14.574Z,83.53
2019-05-13T23:51:18.471Z,83.84
2019-05-13T23:54:22.312Z,84.02
2019-05-13T23:57:26.271Z,84.00
